Terminal Aerodrome Forecast
Issued by NWS Mt. Holly, NJ

Home | Current Version | Previous Version | Text Only | Print | Product List | Glossary On
Versions: 1 2 3 4 5 6 7 8 9 10 11 12 13 14 15 16 17
980
FTUS41 KPHI 091740
TAFTTN
TAF
KTTN 091740Z 0918/1018 05007KT P6SM OVC013
     FM092200 07008KT 2SM -SN OVC010
     FM100400 04005KT 3SM BR OVC010
     FM100500 28006KT 4SM BR OVC012
     FM101000 29008KT 4SM BR OVC015
     FM101200 30011G17KT P6SM SCT020 BKN060=

USA.gov is the U.S. government's official web portal to all federal, state and local government web resources and services.